createdAt,value
2018-03-17T00:01:32.214Z,11.85
2018-03-17T00:04:01.238Z,10.88
2018-03-17T00:06:29.526Z,10.77
2018-03-17T00:08:57.793Z,10.48
2018-03-17T00:11:26.065Z,11.70
2018-03-17T00:13:54.317Z,11.52
2018-03-17T00:16:22.578Z,10.18
2018-03-17T00:18:51.606Z,10.52
2018-03-17T00:21:19.861Z,11.43
2018-03-17T00:23:48.507Z,10.20
2018-03-17T00:26:16.743Z,11.40
2018-03-17T00:28:45.017Z,10.07
2018-03-17T00:31:13.265Z,10.50
2018-03-17T00:33:41.522Z,9.32
2018-03-17T00:36:10.538Z,9.77
2018-03-17T00:38:38.791Z,10.55
2018-03-17T00:41:07.810Z,9.05
2018-03-17T00:43:36.058Z,8.23
2018-03-17T00:46:05.074Z,9.48
2018-03-17T00:48:33.328Z,9.02
2018-03-17T00:51:02.353Z,9.50
2018-03-17T00:53:30.610Z,8.60
2018-03-17T00:55:58.858Z,8.10
2018-03-17T00:58:28.621Z,8.68
2018-03-17T01:00:56.899Z,8.95
2018-03-17T01:03:25.155Z,8.38
2018-03-17T01:05:53.461Z,8.10
2018-03-17T01:08:21.729Z,9.23
2018-03-17T01:10:50.013Z,8.82
2018-03-17T01:13:18.624Z,8.10
2018-03-17T01:15:46.961Z,9.55
2018-03-17T01:18:15.202Z,6.80
2018-03-17T01:20:44.225Z,7.95
2018-03-17T01:23:12.466Z,8.15
2018-03-17T01:25:41.501Z,8.25
2018-03-17T01:28:09.757Z,7.35
2018-03-17T01:30:38.054Z,8.30
2018-03-17T01:33:06.317Z,8.60
2018-03-17T01:35:34.572Z,8.02
2018-03-17T01:38:03.585Z,8.20
2018-03-17T01:40:31.853Z,8.00
2018-03-17T01:43:00.097Z,8.77
2018-03-17T01:45:29.142Z,7.12
2018-03-17T01:47:57.409Z,6.43
2018-03-17T01:50:25.691Z,7.12
2018-03-17T01:52:53.962Z,7.12
2018-03-17T01:55:22.236Z,7.72
2018-03-17T01:57:50.506Z,7.50
2018-03-17T02:00:18.770Z,6.37
2018-03-17T02:02:47.013Z,7.18
2018-03-17T02:05:16.066Z,5.65
2018-03-17T02:07:44.329Z,6.62
2018-03-17T02:10:12.589Z,7.47
2018-03-17T02:12:40.837Z,6.68
2018-03-17T02:15:09.881Z,7.87
2018-03-17T02:17:38.135Z,7.53
2018-03-17T02:20:06.383Z,8.13
2018-03-17T02:22:35.416Z,6.87
2018-03-17T02:25:03.656Z,8.88
2018-03-17T02:27:32.658Z,7.22
2018-03-17T02:30:00.948Z,7.62
2018-03-17T02:32:29.229Z,5.85
2018-03-17T02:34:57.468Z,7.75
2018-03-17T02:37:26.492Z,6.82
2018-03-17T02:39:54.767Z,7.70
2018-03-17T02:42:23.067Z,7.35
2018-03-17T02:44:51.321Z,6.93
2018-03-17T02:47:19.600Z,7.30
2018-03-17T02:49:47.888Z,7.32
2018-03-17T02:52:16.148Z,7.05
2018-03-17T02:54:44.379Z,7.10
2018-03-17T02:57:13.392Z,6.55
2018-03-17T02:59:41.628Z,6.62
2018-03-17T03:02:09.876Z,6.22
2018-03-17T03:04:38.137Z,6.78
2018-03-17T03:07:06.411Z,7.55
2018-03-17T03:09:34.657Z,6.85
2018-03-17T03:12:03.675Z,6.35
2018-03-17T03:14:31.913Z,5.05
2018-03-17T03:17:00.948Z,6.72
2018-03-17T03:19:29.224Z,7.35
2018-03-17T03:21:57.484Z,7.20
2018-03-17T03:24:25.728Z,7.10
2018-03-17T03:26:53.973Z,6.32
2018-03-17T03:29:22.231Z,7.40
2018-03-17T03:31:50.496Z,7.22
2018-03-17T03:34:18.773Z,6.72
2018-03-17T03:36:47.007Z,6.95
2018-03-17T03:39:16.043Z,6.10
2018-03-17T03:41:44.341Z,6.87
2018-03-17T03:44:12.580Z,6.95
2018-03-17T03:46:40.826Z,6.18
2018-03-17T03:49:09.872Z,7.70
2018-03-17T03:51:38.112Z,6.93
2018-03-17T03:54:06.365Z,6.45
2018-03-17T03:56:34.684Z,6.97
2018-03-17T03:59:02.948Z,6.25
2018-03-17T04:01:31.195Z,7.25
2018-03-17T04:03:59.507Z,6.97
2018-03-17T04:06:27.797Z,6.55
2018-03-17T04:08:56.035Z,5.90
2018-03-17T04:11:25.053Z,6.10
2018-03-17T04:13:53.294Z,6.75
2018-03-17T04:16:22.320Z,6.15
2018-03-17T04:18:50.596Z,5.72
2018-03-17T04:21:18.848Z,5.82
2018-03-17T04:23:47.085Z,5.62
2018-03-17T04:26:15.344Z,6.22
2018-03-17T04:28:43.580Z,5.93
2018-03-17T04:31:11.869Z,5.72
2018-03-17T04:33:40.143Z,5.37
2018-03-17T04:36:08.432Z,5.57
2018-03-17T04:38:36.696Z,4.57
2018-03-17T04:41:04.925Z,4.62
2018-03-17T04:43:33.163Z,5.93
2018-03-17T04:46:01.423Z,6.00
2018-03-17T04:48:29.689Z,5.60
2018-03-17T04:50:57.983Z,5.45
2018-03-17T04:53:26.213Z,6.30
2018-03-17T04:55:55.221Z,5.68
2018-03-17T04:58:23.465Z,4.45
2018-03-17T05:00:51.707Z,6.25
2018-03-17T05:03:19.947Z,6.37
2018-03-17T05:05:48.192Z,6.07
2018-03-17T05:08:17.195Z,6.43
2018-03-17T05:10:46.313Z,6.53
2018-03-17T05:13:14.552Z,6.03
2018-03-17T05:15:42.780Z,5.57
2018-03-17T05:18:11.036Z,5.68
2018-03-17T05:20:39.276Z,5.35
2018-03-17T05:23:07.532Z,5.78
2018-03-17T05:25:35.747Z,5.50
2018-03-17T05:28:04.008Z,4.72
2018-03-17T05:30:33.004Z,6.18
2018-03-17T05:33:02.040Z,6.10
2018-03-17T05:35:30.311Z,5.50
2018-03-17T05:37:58.548Z,5.87
2018-03-17T05:40:27.544Z,5.60
2018-03-17T05:42:56.669Z,5.72
2018-03-17T05:45:24.908Z,6.07
2018-03-17T05:47:53.914Z,6.03
2018-03-17T05:50:22.151Z,6.05
2018-03-17T05:52:50.396Z,6.25
2018-03-17T05:55:18.653Z,3.70
2018-03-17T05:57:46.884Z,4.95
2018-03-17T06:00:15.129Z,5.80
2018-03-17T06:02:43.368Z,5.15
2018-03-17T06:05:11.656Z,5.57
2018-03-17T06:07:39.896Z,5.15
2018-03-17T06:10:08.922Z,5.90
2018-03-17T06:12:37.200Z,5.25
2018-03-17T06:15:05.456Z,5.85
2018-03-17T06:17:34.474Z,5.10
2018-03-17T06:20:02.709Z,4.82
2018-03-17T06:22:31.732Z,6.32
2018-03-17T06:25:00.012Z,5.25
2018-03-17T06:27:28.263Z,5.32
2018-03-17T06:29:57.318Z,5.40
2018-03-17T06:32:25.656Z,5.20
2018-03-17T06:34:53.931Z,4.95
2018-03-17T06:37:22.213Z,4.68
2018-03-17T06:39:50.489Z,5.47
2018-03-17T06:42:18.739Z,4.57
2018-03-17T06:44:46.984Z,6.20
2018-03-17T06:47:15.219Z,5.10
2018-03-17T06:49:43.568Z,5.35
2018-03-17T06:52:12.576Z,5.87
2018-03-17T06:54:40.856Z,4.65
2018-03-17T06:57:09.094Z,5.35
2018-03-17T06:59:38.127Z,5.40
2018-03-17T07:02:06.357Z,4.50
2018-03-17T07:04:35.391Z,5.47
2018-03-17T07:07:03.616Z,5.47
2018-03-17T07:09:32.623Z,5.12
2018-03-17T07:12:01.627Z,5.28
2018-03-17T07:14:29.885Z,5.53
2018-03-17T07:16:58.897Z,5.50
2018-03-17T07:19:27.148Z,5.40
2018-03-17T07:21:56.166Z,5.72
2018-03-17T07:24:24.407Z,4.95
2018-03-17T07:26:53.411Z,3.90
2018-03-17T07:29:22.458Z,5.03
2018-03-17T07:31:50.716Z,5.28
2018-03-17T07:34:18.988Z,4.93
2018-03-17T07:36:47.229Z,5.03
2018-03-17T07:39:16.265Z,5.68
2018-03-17T07:41:44.515Z,6.25
2018-03-17T07:44:12.747Z,6.35
2018-03-17T07:46:41.016Z,4.70
2018-03-17T07:49:09.274Z,5.53
2018-03-17T07:51:37.508Z,5.45
2018-03-17T07:54:05.757Z,4.65
2018-03-17T07:56:34.089Z,5.50
2018-03-17T07:59:02.355Z,5.70
2018-03-17T08:01:30.607Z,4.87
2018-03-17T08:03:59.619Z,6.25
2018-03-17T08:06:27.904Z,6.03
2018-03-17T08:08:56.237Z,6.18
2018-03-17T08:11:24.412Z,4.72
2018-03-17T08:13:53.433Z,4.55
2018-03-17T08:16:21.706Z,5.55
2018-03-17T08:18:50.706Z,5.40
2018-03-17T08:21:18.944Z,4.20
2018-03-17T08:23:47.976Z,4.95
2018-03-17T08:26:16.217Z,4.72
2018-03-17T08:28:45.224Z,5.10
2018-03-17T08:31:14.294Z,5.37
2018-03-17T08:33:42.516Z,6.30
2018-03-17T08:36:10.770Z,5.93
2018-03-17T08:38:39.063Z,5.32
2018-03-17T08:41:07.344Z,5.20
2018-03-17T08:43:35.624Z,5.78
2018-03-17T08:46:03.900Z,4.22
2018-03-17T08:48:32.168Z,4.22
2018-03-17T08:51:00.548Z,4.60
2018-03-17T08:53:28.800Z,4.75
2018-03-17T08:55:57.105Z,4.18
2018-03-17T08:58:25.341Z,4.72
2018-03-17T09:00:54.365Z,4.50
2018-03-17T09:03:22.605Z,4.82
2018-03-17T09:05:51.646Z,5.37
2018-03-17T09:08:19.911Z,4.97
2018-03-17T09:10:48.152Z,5.20
2018-03-17T09:13:17.153Z,5.87
2018-03-17T09:15:45.393Z,5.03
2018-03-17T09:18:15.148Z,5.90
2018-03-17T09:20:43.388Z,6.05
2018-03-17T09:23:11.651Z,4.90
2018-03-17T09:25:39.894Z,5.57
2018-03-17T09:28:08.162Z,6.00
2018-03-17T09:30:36.451Z,5.40
2018-03-17T09:33:04.680Z,5.68
2018-03-17T09:35:33.700Z,5.80
2018-03-17T09:38:01.958Z,6.18
2018-03-17T09:40:30.256Z,4.25
2018-03-17T09:42:58.488Z,6.20
2018-03-17T09:45:27.525Z,5.70
2018-03-17T09:47:55.757Z,5.10
2018-03-17T09:50:24.790Z,5.57
2018-03-17T09:52:53.069Z,7.22
2018-03-17T09:55:21.336Z,5.97
2018-03-17T09:57:49.626Z,5.45
2018-03-17T10:00:17.887Z,5.80
2018-03-17T10:02:46.123Z,4.95
2018-03-17T10:05:15.160Z,5.72
2018-03-17T10:07:43.395Z,6.45
2018-03-17T10:10:12.427Z,6.87
2018-03-17T10:12:40.669Z,6.37
2018-03-17T10:15:09.696Z,6.57
2018-03-17T10:17:37.944Z,6.18
2018-03-17T10:20:06.876Z,7.07
2018-03-17T10:22:35.136Z,6.82
2018-03-17T10:25:03.413Z,6.70
2018-03-17T10:27:31.693Z,6.53
2018-03-17T10:29:59.928Z,5.53
2018-03-17T10:32:28.956Z,5.18
2018-03-17T10:34:57.220Z,6.00
2018-03-17T10:37:25.463Z,6.10
2018-03-17T10:39:54.481Z,5.85
2018-03-17T10:42:22.717Z,6.93
2018-03-17T10:44:50.961Z,6.80
2018-03-17T10:47:19.370Z,6.05
2018-03-17T10:49:47.735Z,6.15
2018-03-17T10:52:15.935Z,6.65
2018-03-17T10:54:44.973Z,6.20
2018-03-17T10:57:13.208Z,5.15
2018-03-17T10:59:42.216Z,6.03
2018-03-17T11:02:10.485Z,5.53
2018-03-17T11:04:39.499Z,6.15
2018-03-17T11:07:07.745Z,4.93
2018-03-17T11:09:36.777Z,5.60
2018-03-17T11:12:05.810Z,6.00
2018-03-17T11:14:34.148Z,4.95
2018-03-17T11:17:02.389Z,5.78
2018-03-17T11:19:31.393Z,6.28
2018-03-17T11:21:59.681Z,5.90
2018-03-17T11:24:27.919Z,6.28
2018-03-17T11:26:56.951Z,6.03
2018-03-17T11:29:25.232Z,6.70
2018-03-17T11:31:53.504Z,6.55
2018-03-17T11:34:21.768Z,5.60
2018-03-17T11:36:50.028Z,5.93
2018-03-17T11:39:18.343Z,5.62
2018-03-17T11:41:46.616Z,7.37
2018-03-17T11:44:14.860Z,6.57
2018-03-17T11:46:43.146Z,6.25
2018-03-17T11:49:11.395Z,5.97
2018-03-17T11:51:40.396Z,7.20
2018-03-17T11:54:08.644Z,6.28
2018-03-17T11:56:36.993Z,7.87
2018-03-17T11:59:05.232Z,7.25
2018-03-17T12:01:33.472Z,5.32
2018-03-17T12:04:01.724Z,5.87
2018-03-17T12:06:29.969Z,6.32
2018-03-17T12:08:58.244Z,6.93
2018-03-17T12:11:26.480Z,7.93
2018-03-17T12:13:55.492Z,6.20
2018-03-17T12:16:23.792Z,6.78
2018-03-17T12:18:52.073Z,5.05
2018-03-17T12:21:20.315Z,6.37
2018-03-17T12:23:48.547Z,6.28
2018-03-17T12:26:16.794Z,7.75
2018-03-17T12:28:45.036Z,7.07
2018-03-17T12:31:13.289Z,5.95
2018-03-17T12:33:42.340Z,6.30
2018-03-17T12:36:10.584Z,6.45
2018-03-17T12:38:38.889Z,6.97
2018-03-17T12:41:07.134Z,5.90
2018-03-17T12:43:36.128Z,6.32
2018-03-17T12:46:05.466Z,6.07
2018-03-17T12:48:33.724Z,6.28
2018-03-17T12:51:01.972Z,5.35
2018-03-17T12:53:30.972Z,7.93
2018-03-17T12:55:59.227Z,6.22
2018-03-17T12:58:27.467Z,6.55
2018-03-17T13:00:55.712Z,6.07
2018-03-17T13:03:23.948Z,6.07
2018-03-17T13:05:53.050Z,6.00
2018-03-17T13:08:22.055Z,6.68
2018-03-17T13:10:50.308Z,7.28
2018-03-17T13:13:19.348Z,7.68
2018-03-17T13:15:47.593Z,6.95
2018-03-17T13:18:15.901Z,5.80
2018-03-17T13:20:44.172Z,6.28
2018-03-17T13:23:20.485Z,5.87
2018-03-17T13:25:48.800Z,6.70
2018-03-17T13:28:25.737Z,7.22
2018-03-17T13:30:53.953Z,6.07
2018-03-17T13:33:22.197Z,6.68
2018-03-17T13:36:03.216Z,7.05
2018-03-17T13:38:31.485Z,6.55
2018-03-17T13:40:59.745Z,5.95
2018-03-17T13:43:28.142Z,6.82
2018-03-17T13:45:56.384Z,7.45
2018-03-17T13:48:25.421Z,6.87
2018-03-17T13:50:53.633Z,7.40
2018-03-17T13:53:21.881Z,6.43
2018-03-17T13:55:50.128Z,5.87
2018-03-17T13:58:18.367Z,6.12
2018-03-17T14:00:47.397Z,6.80
2018-03-17T14:03:15.644Z,6.87
2018-03-17T14:05:44.668Z,7.28
2018-03-17T14:08:12.918Z,7.12
2018-03-17T14:10:41.240Z,7.70
2018-03-17T14:13:09.464Z,8.27
2018-03-17T14:15:37.775Z,8.02
2018-03-17T14:18:06.365Z,6.37
2018-03-17T14:20:34.627Z,6.95
2018-03-17T14:23:02.912Z,8.45
2018-03-17T14:25:31.179Z,7.50
2018-03-17T14:27:59.420Z,7.30
2018-03-17T14:30:28.540Z,6.93
2018-03-17T14:32:56.805Z,7.32
2018-03-17T14:35:25.263Z,7.22
2018-03-17T14:37:54.549Z,6.28
2018-03-17T14:40:22.763Z,6.95
2018-03-17T14:42:51.136Z,6.55
2018-03-17T14:45:19.477Z,7.47
2018-03-17T14:47:47.701Z,7.35
2018-03-17T14:50:16.080Z,6.30
2018-03-17T14:52:44.320Z,6.50
2018-03-17T14:55:13.351Z,5.95
2018-03-17T14:57:41.620Z,6.45
2018-03-17T15:00:09.900Z,6.75
2018-03-17T15:02:38.136Z,7.07
2018-03-17T15:05:07.168Z,7.15
2018-03-17T15:07:35.404Z,6.62
2018-03-17T15:10:04.440Z,7.55
2018-03-17T15:12:32.690Z,6.75
2018-03-17T15:15:00.984Z,6.70
2018-03-17T15:17:29.260Z,6.85
2018-03-17T15:19:57.500Z,7.18
2018-03-17T15:22:26.512Z,6.95
2018-03-17T15:24:54.814Z,7.10
2018-03-17T15:27:23.060Z,9.48
2018-03-17T15:29:51.300Z,7.90
2018-03-17T15:32:19.561Z,6.82
2018-03-17T15:34:47.804Z,7.47
2018-03-17T15:37:16.128Z,7.10
2018-03-17T15:39:44.344Z,7.90
2018-03-17T15:42:12.586Z,7.18
2018-03-17T15:44:41.620Z,7.32
2018-03-17T15:47:09.864Z,7.45
2018-03-17T15:49:38.884Z,7.05
2018-03-17T15:52:07.124Z,6.50
2018-03-17T15:54:36.141Z,7.20
2018-03-17T15:57:05.525Z,7.40
2018-03-17T15:59:34.548Z,7.43
2018-03-17T16:02:02.824Z,6.40
2018-03-17T16:04:31.151Z,7.72
2018-03-17T16:06:59.363Z,6.72
2018-03-17T16:09:27.612Z,7.53
2018-03-17T16:11:56.643Z,7.18
2018-03-17T16:14:24.896Z,7.55
2018-03-17T16:16:53.150Z,8.10
2018-03-17T16:19:21.389Z,6.87
2018-03-17T16:21:49.641Z,7.10
2018-03-17T16:24:17.931Z,6.72
2018-03-17T16:26:46.208Z,8.27
2018-03-17T16:29:14.480Z,7.57
2018-03-17T16:31:42.732Z,7.32
2018-03-17T16:34:10.960Z,7.82
2018-03-17T16:36:40.916Z,7.25
2018-03-17T16:39:09.580Z,6.50
2018-03-17T16:41:37.895Z,6.93
2018-03-17T16:44:06.144Z,8.15
2018-03-17T16:46:34.390Z,8.13
2018-03-17T16:49:02.651Z,7.18
2018-03-17T16:51:30.893Z,7.68
2018-03-17T16:53:59.148Z,7.28
2018-03-17T16:56:27.384Z,7.28
2018-03-17T16:58:55.724Z,6.62
2018-03-17T17:01:23.969Z,7.60
2018-03-17T17:03:52.987Z,7.25
2018-03-17T17:06:21.269Z,6.70
2018-03-17T17:08:49.508Z,6.82
2018-03-17T17:11:18.525Z,6.95
2018-03-17T17:13:46.761Z,6.32
2018-03-17T17:16:15.088Z,6.97
2018-03-17T17:18:43.337Z,7.55
2018-03-17T17:21:11.632Z,7.75
2018-03-17T17:23:39.896Z,5.95
2018-03-17T17:26:08.186Z,7.00
2018-03-17T17:28:36.423Z,6.62
2018-03-17T17:31:05.440Z,7.12
2018-03-17T17:33:33.680Z,7.00
2018-03-17T17:36:02.019Z,7.72
2018-03-17T17:38:30.252Z,6.55
2018-03-17T17:40:59.372Z,7.57
2018-03-17T17:43:27.656Z,7.32
2018-03-17T17:45:55.971Z,8.52
2018-03-17T17:48:24.905Z,7.55
2018-03-17T17:50:53.209Z,8.02
2018-03-17T17:53:21.475Z,8.23
2018-03-17T17:55:49.741Z,8.35
2018-03-17T17:58:18.744Z,8.52
2018-03-17T18:00:47.016Z,7.80
2018-03-17T18:03:15.260Z,8.50
2018-03-17T18:05:43.568Z,8.43
2018-03-17T18:08:11.834Z,7.72
2018-03-17T18:10:40.072Z,7.93
2018-03-17T18:13:09.152Z,8.65
2018-03-17T18:15:37.641Z,9.95
2018-03-17T18:18:05.917Z,8.38
2018-03-17T18:20:34.928Z,8.00
2018-03-17T18:23:03.941Z,8.43
2018-03-17T18:25:32.191Z,7.07
2018-03-17T18:28:01.212Z,8.45
2018-03-17T18:30:29.498Z,8.77
2018-03-17T18:32:57.704Z,10.15
2018-03-17T18:35:25.958Z,9.18
2018-03-17T18:37:54.233Z,9.98
2018-03-17T18:40:22.503Z,9.18
2018-03-17T18:42:50.776Z,9.27
2018-03-17T18:45:19.019Z,10.30
2018-03-17T18:47:47.330Z,9.88
2018-03-17T18:50:15.599Z,9.35
2018-03-17T18:52:43.857Z,8.57
2018-03-17T18:55:12.157Z,9.38
2018-03-17T18:57:40.396Z,9.77
2018-03-17T19:00:09.444Z,8.63
2018-03-17T19:02:37.792Z,8.70
2018-03-17T19:05:06.072Z,8.90
2018-03-17T19:07:34.324Z,8.88
2018-03-17T19:10:02.565Z,9.20
2018-03-17T19:12:30.813Z,8.77
2018-03-17T19:14:59.048Z,8.55
2018-03-17T19:17:27.297Z,10.15
2018-03-17T19:19:56.312Z,10.55
2018-03-17T19:22:24.639Z,10.73
2018-03-17T19:24:52.863Z,9.20
2018-03-17T19:27:21.128Z,9.73
2018-03-17T19:29:50.131Z,9.40
2018-03-17T19:32:18.434Z,8.45
2018-03-17T19:34:46.668Z,9.40
2018-03-17T19:37:15.699Z,9.15
2018-03-17T19:39:43.973Z,8.73
2018-03-17T19:42:12.216Z,8.65
2018-03-17T19:44:41.233Z,8.05
2018-03-17T19:47:09.516Z,8.40
2018-03-17T19:49:37.838Z,7.47
2018-03-17T19:52:06.064Z,8.75
2018-03-17T19:54:34.317Z,8.38
2018-03-17T19:57:02.558Z,8.85
2018-03-17T19:59:30.827Z,9.57
2018-03-17T20:01:59.067Z,8.75
2018-03-17T20:04:27.360Z,8.93
2018-03-17T20:06:55.616Z,9.23
2018-03-17T20:09:23.857Z,9.20
2018-03-17T20:11:52.864Z,9.02
2018-03-17T20:14:21.264Z,8.77
2018-03-17T20:16:49.804Z,8.50
2018-03-17T20:19:18.129Z,8.07
2018-03-17T20:21:46.375Z,8.40
2018-03-17T20:24:15.391Z,8.10
2018-03-17T20:26:43.639Z,8.38
2018-03-17T20:29:11.879Z,7.85
2018-03-17T20:31:40.215Z,7.40
2018-03-17T20:34:08.500Z,8.00
2018-03-17T20:36:36.743Z,8.10
2018-03-17T20:39:04.992Z,7.72
2018-03-17T20:41:33.226Z,7.75
2018-03-17T20:44:01.497Z,7.25
2018-03-17T20:46:29.732Z,8.07
2018-03-17T20:48:58.753Z,8.35
2018-03-17T20:51:27.050Z,6.85
2018-03-17T20:53:55.308Z,7.60
2018-03-17T20:56:23.549Z,7.82
2018-03-17T20:58:52.592Z,7.60
2018-03-17T21:01:20.852Z,7.05
2018-03-17T21:03:49.130Z,8.32
2018-03-17T21:06:17.409Z,7.45
2018-03-17T21:08:45.648Z,6.95
2018-03-17T21:11:14.664Z,7.55
2018-03-17T21:13:42.950Z,6.45
2018-03-17T21:16:11.224Z,7.90
2018-03-17T21:18:39.492Z,7.18
2018-03-17T21:21:07.722Z,6.37
2018-03-17T21:23:36.034Z,7.12
2018-03-17T21:26:04.371Z,7.03
2018-03-17T21:28:32.604Z,6.53
2018-03-17T21:31:00.882Z,6.50
2018-03-17T21:33:29.126Z,6.62
2018-03-17T21:35:57.359Z,6.62
2018-03-17T21:38:25.605Z,6.00
2018-03-17T21:40:53.877Z,6.18
2018-03-17T21:43:22.157Z,6.57
2018-03-17T21:45:50.393Z,6.53
2018-03-17T21:48:19.420Z,6.40
2018-03-17T21:50:47.660Z,6.45
2018-03-17T21:53:16.691Z,6.82
2018-03-17T21:55:44.925Z,5.75
2018-03-17T21:58:14.001Z,5.70
2018-03-17T22:00:42.325Z,5.57
2018-03-17T22:03:11.297Z,6.35
2018-03-17T22:05:40.420Z,5.35
2018-03-17T22:08:09.577Z,5.85
2018-03-17T22:10:38.585Z,6.65
2018-03-17T22:13:06.929Z,6.82
2018-03-17T22:15:35.168Z,6.55
2018-03-17T22:18:03.407Z,6.47
2018-03-17T22:20:31.644Z,5.12
2018-03-17T22:22:59.892Z,5.90
2018-03-17T22:25:28.744Z,6.32
2018-03-17T22:27:57.047Z,6.18
2018-03-17T22:30:25.294Z,5.68
2018-03-17T22:32:53.592Z,5.57
2018-03-17T22:35:21.873Z,5.90
2018-03-17T22:37:50.167Z,6.15
2018-03-17T22:40:18.420Z,6.65
2018-03-17T22:42:46.660Z,5.72
2018-03-17T22:45:15.672Z,5.87
2018-03-17T22:47:43.917Z,6.25
2018-03-17T22:50:12.940Z,6.43
2018-03-17T22:52:41.196Z,6.00
2018-03-17T22:55:10.225Z,6.50
2018-03-17T22:57:38.464Z,6.37
2018-03-17T23:00:07.492Z,5.50
2018-03-17T23:02:35.740Z,6.70
2018-03-17T23:05:04.761Z,5.60
2018-03-17T23:07:33.010Z,6.25
2018-03-17T23:10:01.268Z,5.97
2018-03-17T23:12:30.281Z,6.60
2018-03-17T23:14:58.516Z,7.80
2018-03-17T23:17:27.316Z,6.28
2018-03-17T23:19:55.563Z,6.50
2018-03-17T23:22:23.812Z,5.90
2018-03-17T23:24:52.054Z,6.95
2018-03-17T23:27:21.069Z,5.55
2018-03-17T23:29:49.313Z,5.80
2018-03-17T23:32:18.321Z,6.95
2018-03-17T23:34:47.332Z,6.45
2018-03-17T23:37:15.612Z,7.15
2018-03-17T23:39:43.872Z,5.85
2018-03-17T23:42:12.108Z,6.07
2018-03-17T23:44:40.360Z,6.25
2018-03-17T23:47:08.600Z,6.35
2018-03-17T23:49:36.836Z,5.70
2018-03-17T23:52:06.599Z,5.90
2018-03-17T23:54:34.841Z,5.97
2018-03-17T23:57:03.860Z,6.30
2018-03-17T23:59:32.103Z,6.95
